sensor_id;sensor_type;location;lat;lon;timestamp;pressure;altitude;pressure_sealevel;temperature;humidity
21730;BME280;11027;51.030;13.812;2023-03-18T00:00:25;99863.72;;;9.35;38.80
21730;BME280;11027;51.030;13.812;2023-03-18T00:02:51;99854.56;;;9.28;38.92
21730;BME280;11027;51.030;13.812;2023-03-18T00:05:18;99851.00;;;9.28;38.93
21730;BME280;11027;51.030;13.812;2023-03-18T00:07:43;99853.91;;;9.26;39.15
21730;BME280;11027;51.030;13.812;2023-03-18T00:10:09;99854.28;;;9.23;39.21
21730;BME280;11027;51.030;13.812;2023-03-18T00:12:36;99849.69;;;9.24;39.31
21730;BME280;11027;51.030;13.812;2023-03-18T00:15:03;99849.19;;;9.20;39.29
21730;BME280;11027;51.030;13.812;2023-03-18T00:17:28;99849.72;;;9.15;39.42
21730;BME280;11027;51.030;13.812;2023-03-18T00:19:53;99850.56;;;9.16;39.43
21730;BME280;11027;51.030;13.812;2023-03-18T00:22:19;99851.56;;;9.15;39.46
21730;BME280;11027;51.030;13.812;2023-03-18T00:24:44;99842.59;;;9.14;39.47
21730;BME280;11027;51.030;13.812;2023-03-18T00:27:09;99853.28;;;9.16;39.41
21730;BME280;11027;51.030;13.812;2023-03-18T00:29:34;99854.97;;;9.17;39.40
21730;BME280;11027;51.030;13.812;2023-03-18T00:31:59;99847.84;;;9.16;39.39
21730;BME280;11027;51.030;13.812;2023-03-18T00:34:25;99846.16;;;9.15;39.40
21730;BME280;11027;51.030;13.812;2023-03-18T00:36:50;99844.47;;;9.14;39.30
21730;BME280;11027;51.030;13.812;2023-03-18T00:39:23;99840.72;;;9.15;39.25
21730;BME280;11027;51.030;13.812;2023-03-18T00:41:53;99839.03;;;9.14;39.31
21730;BME280;11027;51.030;13.812;2023-03-18T00:44:18;99843.63;;;9.13;39.33
21730;BME280;11027;51.030;13.812;2023-03-18T00:46:44;99839.38;;;9.11;39.38
21730;BME280;11027;51.030;13.812;2023-03-18T00:49:09;99837.69;;;9.10;39.42
21730;BME280;11027;51.030;13.812;2023-03-18T00:51:35;99837.69;;;9.10;39.36
21730;BME280;11027;51.030;13.812;2023-03-18T00:54:02;99840.25;;;9.11;39.32
21730;BME280;11027;51.030;13.812;2023-03-18T00:56:30;99835.47;;;9.13;39.44
21730;BME280;11027;51.030;13.812;2023-03-18T00:58:56;99835.16;;;9.08;39.40
21730;BME280;11027;51.030;13.812;2023-03-18T01:01:22;99822.78;;;9.06;39.58
21730;BME280;11027;51.030;13.812;2023-03-18T01:03:48;99825.50;;;9.06;39.56
21730;BME280;11027;51.030;13.812;2023-03-18T01:06:15;99818.34;;;9.05;39.68
21730;BME280;11027;51.030;13.812;2023-03-18T01:08:41;99820.06;;;9.06;39.67
21730;BME280;11027;51.030;13.812;2023-03-18T01:11:06;99818.00;;;9.08;39.52
21730;BME280;11027;51.030;13.812;2023-03-18T01:13:32;99824.28;;;9.08;39.61
21730;BME280;11027;51.030;13.812;2023-03-18T01:15:57;99813.59;;;9.07;39.88
21730;BME280;11027;51.030;13.812;2023-03-18T01:18:23;99821.06;;;9.05;39.61
21730;BME280;11027;51.030;13.812;2023-03-18T01:20:48;99812.25;;;9.02;39.80
21730;BME280;11027;51.030;13.812;2023-03-18T01:23:13;99801.09;;;8.97;39.87
21730;BME280;11027;51.030;13.812;2023-03-18T01:25:39;99815.69;;;8.96;39.75
21730;BME280;11027;51.030;13.812;2023-03-18T01:28:04;99805.31;;;9.00;39.77
21730;BME280;11027;51.030;13.812;2023-03-18T01:30:30;99810.91;;;8.98;39.82
21730;BME280;11027;51.030;13.812;2023-03-18T01:32:56;99802.78;;;8.98;39.92
21730;BME280;11027;51.030;13.812;2023-03-18T01:35:21;99803.16;;;8.95;39.82
21730;BME280;11027;51.030;13.812;2023-03-18T01:37:46;99800.59;;;8.94;39.93
21730;BME280;11027;51.030;13.812;2023-03-18T01:40:12;99799.75;;;8.93;39.93
21730;BME280;11027;51.030;13.812;2023-03-18T01:42:38;99814.34;;;8.92;40.07
21730;BME280;11027;51.030;13.812;2023-03-18T01:45:18;99812.19;;;8.88;40.09
21730;BME280;11027;51.030;13.812;2023-03-18T01:47:44;99802.16;;;8.88;40.06
21730;BME280;11027;51.030;13.812;2023-03-18T01:50:11;99806.25;;;8.84;39.97
21730;BME280;11027;51.030;13.812;2023-03-18T01:52:37;99808.13;;;8.84;40.11
21730;BME280;11027;51.030;13.812;2023-03-18T01:55:05;99805.25;;;8.85;40.14
21730;BME280;11027;51.030;13.812;2023-03-18T01:57:31;99804.56;;;8.83;40.26
21730;BME280;11027;51.030;13.812;2023-03-18T01:59:57;99801.84;;;8.83;40.28
21730;BME280;11027;51.030;13.812;2023-03-18T02:02:23;99806.97;;;8.78;40.41
21730;BME280;11027;51.030;13.812;2023-03-18T02:04:50;99797.59;;;8.80;40.34
21730;BME280;11027;51.030;13.812;2023-03-18T02:07:17;99799.84;;;8.77;40.39
21730;BME280;11027;51.030;13.812;2023-03-18T02:09:43;99806.66;;;8.73;40.53
21730;BME280;11027;51.030;13.812;2023-03-18T02:12:08;99797.84;;;8.71;40.56
21730;BME280;11027;51.030;13.812;2023-03-18T02:14:35;99817.03;;;8.69;40.62
21730;BME280;11027;51.030;13.812;2023-03-18T02:17:02;99807.19;;;8.68;40.62
21730;BME280;11027;51.030;13.812;2023-03-18T02:19:38;99813.47;;;8.69;40.69
21730;BME280;11027;51.030;13.812;2023-03-18T02:25:06;99823.97;;;8.72;40.52
21730;BME280;11027;51.030;13.812;2023-03-18T02:27:35;99832.28;;;8.70;40.49
21730;BME280;11027;51.030;13.812;2023-03-18T02:30:05;99826.03;;;8.70;40.56
21730;BME280;11027;51.030;13.812;2023-03-18T02:32:31;99826.03;;;8.70;40.57
21730;BME280;11027;51.030;13.812;2023-03-18T02:34:58;99829.09;;;8.67;40.63
21730;BME280;11027;51.030;13.812;2023-03-18T02:37:24;99823.00;;;8.65;40.60
21730;BME280;11027;51.030;13.812;2023-03-18T02:39:49;99828.78;;;8.61;40.68
21730;BME280;11027;51.030;13.812;2023-03-18T02:42:25;99824.72;;;8.57;40.77
21730;BME280;11027;51.030;13.812;2023-03-18T02:44:51;99831.34;;;8.55;40.85
21730;BME280;11027;51.030;13.812;2023-03-18T02:47:17;99833.56;;;8.51;40.88
21730;BME280;11027;51.030;13.812;2023-03-18T02:49:44;99832.38;;;8.54;40.87
21730;BME280;11027;51.030;13.812;2023-03-18T02:52:10;99847.81;;;8.53;40.81
21730;BME280;11027;51.030;13.812;2023-03-18T02:54:35;99848.47;;;8.55;41.01
21730;BME280;11027;51.030;13.812;2023-03-18T02:57:00;99851.19;;;8.55;40.82
21730;BME280;11027;51.030;13.812;2023-03-18T02:59:27;99852.41;;;8.53;40.76
21730;BME280;11027;51.030;13.812;2023-03-18T03:01:52;99848.47;;;8.55;40.87
21730;BME280;11027;51.030;13.812;2023-03-18T03:04:18;99852.91;;;8.56;40.92
21730;BME280;11027;51.030;13.812;2023-03-18T03:06:44;99857.66;;;8.54;40.84
21730;BME280;11027;51.030;13.812;2023-03-18T03:09:11;99862.91;;;8.56;40.90
21730;BME280;11027;51.030;13.812;2023-03-18T03:11:37;99858.69;;;8.53;40.91
21730;BME280;11027;51.030;13.812;2023-03-18T03:14:03;99868.19;;;8.49;40.97
21730;BME280;11027;51.030;13.812;2023-03-18T03:16:28;99873.63;;;8.49;40.90
21730;BME280;11027;51.030;13.812;2023-03-18T03:18:53;99872.94;;;8.47;41.07
21730;BME280;11027;51.030;13.812;2023-03-18T03:21:18;99871.91;;;8.48;41.01
21730;BME280;11027;51.030;13.812;2023-03-18T03:23:44;99871.91;;;8.48;41.13
21730;BME280;11027;51.030;13.812;2023-03-18T03:26:10;99868.53;;;8.46;41.25
21730;BME280;11027;51.030;13.812;2023-03-18T03:28:35;99863.97;;;8.47;41.28
21730;BME280;11027;51.030;13.812;2023-03-18T03:31:01;99860.75;;;8.43;41.29
21730;BME280;11027;51.030;13.812;2023-03-18T03:33:26;99869.19;;;8.40;41.36
21730;BME280;11027;51.030;13.812;2023-03-18T03:35:51;99867.50;;;8.39;41.39
21730;BME280;11027;51.030;13.812;2023-03-18T03:38:17;99874.63;;;8.40;41.36
21730;BME280;11027;51.030;13.812;2023-03-18T03:40:42;99867.50;;;8.39;41.33
21730;BME280;11027;51.030;13.812;2023-03-18T03:43:09;99865.63;;;8.39;41.52
21730;BME280;11027;51.030;13.812;2023-03-18T03:45:35;99879.22;;;8.39;41.48
21730;BME280;11027;51.030;13.812;2023-03-18T03:48:01;99877.84;;;8.35;41.58
21730;BME280;11027;51.030;13.812;2023-03-18T03:50:27;99879.06;;;8.33;41.60
21730;BME280;11027;51.030;13.812;2023-03-18T03:52:52;99882.09;;;8.30;41.69
21730;BME280;11027;51.030;13.812;2023-03-18T03:55:18;99885.69;;;8.30;41.53
21730;BME280;11027;51.030;13.812;2023-03-18T03:57:44;99884.16;;;8.28;41.56
21730;BME280;11027;51.030;13.812;2023-03-18T04:00:11;99889.94;;;8.25;41.74
21730;BME280;11027;51.030;13.812;2023-03-18T04:02:40;99883.31;;;8.19;41.73
21730;BME280;11027;51.030;13.812;2023-03-18T04:05:07;99899.25;;;8.14;41.78
21730;BME280;11027;51.030;13.812;2023-03-18T04:07:33;99898.25;;;8.15;41.89
21730;BME280;11027;51.030;13.812;2023-03-18T04:09:58;99903.69;;;8.15;41.94
21730;BME280;11027;51.030;13.812;2023-03-18T04:12:23;99902.34;;;8.11;42.09
21730;BME280;11027;51.030;13.812;2023-03-18T04:14:48;99899.78;;;8.09;42.11
21730;BME280;11027;51.030;13.812;2023-03-18T04:17:14;99918.09;;;8.07;42.25
21730;BME280;11027;51.030;13.812;2023-03-18T04:19:39;99919.47;;;8.03;42.32
21730;BME280;11027;51.030;13.812;2023-03-18T04:22:05;99919.97;;;7.98;42.52
21730;BME280;11027;51.030;13.812;2023-03-18T04:24:30;99919.13;;;7.98;42.50
21730;BME280;11027;51.030;13.812;2023-03-18T04:26:56;99920.81;;;7.99;42.61
21730;BME280;11027;51.030;13.812;2023-03-18T04:29:21;99918.47;;;7.96;42.57
21730;BME280;11027;51.030;13.812;2023-03-18T04:31:47;99914.41;;;7.92;42.73
21730;BME280;11027;51.030;13.812;2023-03-18T04:34:12;99920.81;;;7.91;42.69
21730;BME280;11027;51.030;13.812;2023-03-18T04:36:37;99914.72;;;7.89;42.70
21730;BME280;11027;51.030;13.812;2023-03-18T04:39:02;99926.75;;;7.86;42.84
21730;BME280;11027;51.030;13.812;2023-03-18T04:41:28;99922.50;;;7.84;42.72
21730;BME280;11027;51.030;13.812;2023-03-18T04:43:53;99926.91;;;7.85;42.77
21730;BME280;11027;51.030;13.812;2023-03-18T04:46:18;99929.97;;;7.81;42.77
21730;BME280;11027;51.030;13.812;2023-03-18T04:48:43;99922.84;;;7.80;42.82
21730;BME280;11027;51.030;13.812;2023-03-18T04:51:08;99932.00;;;7.79;42.85
21730;BME280;11027;51.030;13.812;2023-03-18T04:53:34;99924.88;;;7.78;42.98
21730;BME280;11027;51.030;13.812;2023-03-18T04:56:00;99936.72;;;7.77;42.93
21730;BME280;11027;51.030;13.812;2023-03-18T04:58:25;99932.66;;;7.73;43.03
21730;BME280;11027;51.030;13.812;2023-03-18T05:00:51;99927.91;;;7.67;43.10
21730;BME280;11027;51.030;13.812;2023-03-18T05:03:17;99938.06;;;7.65;43.13
21730;BME280;11027;51.030;13.812;2023-03-18T05:05:42;99932.66;;;7.65;43.15
21730;BME280;11027;51.030;13.812;2023-03-18T05:08:08;99929.94;;;7.65;43.07
21730;BME280;11027;51.030;13.812;2023-03-18T05:10:34;99931.97;;;7.63;43.36
21730;BME280;11027;51.030;13.812;2023-03-18T05:12:59;99934.34;;;7.58;43.26
21730;BME280;11027;51.030;13.812;2023-03-18T05:15:24;99929.25;;;7.55;43.37
21730;BME280;11027;51.030;13.812;2023-03-18T05:17:49;99936.38;;;7.56;43.45
21730;BME280;11027;51.030;13.812;2023-03-18T05:20:15;99935.03;;;7.52;43.41
21730;BME280;11027;51.030;13.812;2023-03-18T05:22:40;99937.06;;;7.50;43.68
21730;BME280;11027;51.030;13.812;2023-03-18T05:25:06;99936.03;;;7.51;43.67
21730;BME280;11027;51.030;13.812;2023-03-18T05:27:31;99936.72;;;7.53;43.68
21730;BME280;11027;51.030;13.812;2023-03-18T05:29:56;99945.88;;;7.52;43.60
21730;BME280;11027;51.030;13.812;2023-03-18T05:32:21;99950.94;;;7.47;43.71
21730;BME280;11027;51.030;13.812;2023-03-18T05:34:47;99955.66;;;7.45;43.79
21730;BME280;11027;51.030;13.812;2023-03-18T05:37:12;99947.19;;;7.39;43.83
21730;BME280;11027;51.030;13.812;2023-03-18T05:39:38;99954.47;;;7.39;44.09
21730;BME280;11027;51.030;13.812;2023-03-18T05:42:03;99950.91;;;7.38;44.09
21730;BME280;11027;51.030;13.812;2023-03-18T05:44:29;99953.47;;;7.40;44.01
21730;BME280;11027;51.030;13.812;2023-03-18T05:46:54;99957.00;;;7.40;43.94
21730;BME280;11027;51.030;13.812;2023-03-18T05:49:20;99956.69;;;7.44;43.86
21730;BME280;11027;51.030;13.812;2023-03-18T05:51:45;99960.78;;;7.48;43.97
21730;BME280;11027;51.030;13.812;2023-03-18T05:54:11;99957.88;;;7.49;43.93
21730;BME280;11027;51.030;13.812;2023-03-18T05:56:36;99959.75;;;7.49;43.94
21730;BME280;11027;51.030;13.812;2023-03-18T05:59:02;99964.47;;;7.47;43.99
21730;BME280;11027;51.030;13.812;2023-03-18T06:01:27;99972.09;;;7.51;44.00
21730;BME280;11027;51.030;13.812;2023-03-18T06:03:54;99969.25;;;7.53;44.15
21730;BME280;11027;51.030;13.812;2023-03-18T06:06:19;99974.34;;;7.56;44.12
21730;BME280;11027;51.030;13.812;2023-03-18T06:08:45;99974.34;;;7.56;44.12
21730;BME280;11027;51.030;13.812;2023-03-18T06:11:10;99972.31;;;7.58;43.96
21730;BME280;11027;51.030;13.812;2023-03-18T06:13:35;99972.31;;;7.58;44.07
21730;BME280;11027;51.030;13.812;2023-03-18T06:16:01;99975.69;;;7.60;44.12
21730;BME280;11027;51.030;13.812;2023-03-18T06:18:27;99972.31;;;7.58;44.08
21730;BME280;11027;51.030;13.812;2023-03-18T06:20:53;99976.69;;;7.59;44.13
21730;BME280;11027;51.030;13.812;2023-03-18T06:23:18;99982.66;;;7.63;44.11
21730;BME280;11027;51.030;13.812;2023-03-18T06:25:43;99983.84;;;7.68;44.15
21730;BME280;11027;51.030;13.812;2023-03-18T06:28:10;99984.53;;;7.70;44.11
21730;BME280;11027;51.030;13.812;2023-03-18T06:30:36;99974.38;;;7.72;44.03
21730;BME280;11027;51.030;13.812;2023-03-18T06:33:02;99981.16;;;7.76;43.97
21730;BME280;11027;51.030;13.812;2023-03-18T06:35:27;99982.84;;;7.77;43.96
21730;BME280;11027;51.030;13.812;2023-03-18T06:37:53;99978.28;;;7.78;44.06
21730;BME280;11027;51.030;13.812;2023-03-18T06:40:18;99979.44;;;7.84;44.00
21730;BME280;11027;51.030;13.812;2023-03-18T06:42:44;99982.69;;;7.87;44.00
21730;BME280;11027;51.030;13.812;2023-03-18T06:45:09;99982.88;;;7.94;44.06
21730;BME280;11027;51.030;13.812;2023-03-18T06:47:35;99981.19;;;7.93;43.91
21730;BME280;11027;51.030;13.812;2023-03-18T06:50:00;99989.66;;;7.98;43.89
21730;BME280;11027;51.030;13.812;2023-03-18T06:52:25;99983.06;;;8.00;43.86
21730;BME280;11027;51.030;13.812;2023-03-18T06:54:51;99981.84;;;8.03;43.91
21730;BME280;11027;51.030;13.812;2023-03-18T06:57:17;99989.00;;;8.04;43.77
21730;BME280;11027;51.030;13.812;2023-03-18T06:59:42;99982.38;;;8.07;43.88
21730;BME280;11027;51.030;13.812;2023-03-18T07:02:09;99988.31;;;8.10;43.71
21730;BME280;11027;51.030;13.812;2023-03-18T07:04:34;99979.50;;;8.16;43.72
21730;BME280;11027;51.030;13.812;2023-03-18T07:06:59;99975.91;;;8.16;43.65
21730;BME280;11027;51.030;13.812;2023-03-18T07:09:25;99983.56;;;8.20;43.72
21730;BME280;11027;51.030;13.812;2023-03-18T07:11:50;99988.63;;;8.24;43.73
21730;BME280;11027;51.030;13.812;2023-03-18T07:14:15;99970.00;;;8.29;43.54
21730;BME280;11027;51.030;13.812;2023-03-18T07:16:42;99991.88;;;8.35;43.47
21730;BME280;11027;51.030;13.812;2023-03-18T07:19:07;99990.38;;;8.41;43.45
21730;BME280;11027;51.030;13.812;2023-03-18T07:21:33;99987.97;;;8.46;43.39
21730;BME280;11027;51.030;13.812;2023-03-18T07:23:59;99995.44;;;8.52;43.34
21730;BME280;11027;51.030;13.812;2023-03-18T07:26:25;99996.13;;;8.63;43.32
21730;BME280;11027;51.030;13.812;2023-03-18T07:28:50;99989.81;;;8.70;43.33
21730;BME280;11027;51.030;13.812;2023-03-18T07:31:16;99998.59;;;8.80;43.25
21730;BME280;11027;51.030;13.812;2023-03-18T07:33:41;99979.78;;;8.87;43.01
21730;BME280;11027;51.030;13.812;2023-03-18T07:36:06;99991.44;;;8.96;42.99
21730;BME280;11027;51.030;13.812;2023-03-18T07:38:32;99982.97;;;8.99;42.84
21730;BME280;11027;51.030;13.812;2023-03-18T07:40:58;99989.03;;;9.09;42.90
21730;BME280;11027;51.030;13.812;2023-03-18T07:43:23;99991.38;;;9.20;42.80
21730;BME280;11027;51.030;13.812;2023-03-18T07:45:48;99996.25;;;9.33;42.61
21730;BME280;11027;51.030;13.812;2023-03-18T07:48:13;99986.00;;;9.44;42.44
21730;BME280;11027;51.030;13.812;2023-03-18T07:50:39;99985.28;;;9.50;42.37
21730;BME280;11027;51.030;13.812;2023-03-18T07:53:05;99986.63;;;9.54;42.33
21730;BME280;11027;51.030;13.812;2023-03-18T07:55:30;99981.50;;;9.59;42.24
21730;BME280;11027;51.030;13.812;2023-03-18T07:57:55;99986.03;;;9.67;42.09
21730;BME280;11027;51.030;13.812;2023-03-18T08:00:20;99982.44;;;9.74;42.12
21730;BME280;11027;51.030;13.812;2023-03-18T08:02:46;99977.81;;;9.75;41.83
21730;BME280;11027;51.030;13.812;2023-03-18T08:05:11;99982.06;;;9.77;41.76
21730;BME280;11027;51.030;13.812;2023-03-18T08:07:37;99981.72;;;9.80;41.89
21730;BME280;11027;51.030;13.812;2023-03-18T08:10:03;99986.44;;;9.87;41.86
21730;BME280;11027;51.030;13.812;2023-03-18T08:12:28;99983.31;;;9.98;42.06
21730;BME280;11027;51.030;13.812;2023-03-18T08:14:53;99977.31;;;10.02;41.85
21730;BME280;11027;51.030;13.812;2023-03-18T08:17:18;99980.50;;;10.06;41.94
21730;BME280;11027;51.030;13.812;2023-03-18T08:19:44;99979.47;;;10.07;41.71
21730;BME280;11027;51.030;13.812;2023-03-18T08:22:09;99978.91;;;10.12;41.73
21730;BME280;11027;51.030;13.812;2023-03-18T08:24:35;99976.00;;;10.13;41.69
21730;BME280;11027;51.030;13.812;2023-03-18T08:27:01;99984.34;;;10.12;41.66
21730;BME280;11027;51.030;13.812;2023-03-18T08:29:26;99981.19;;;10.08;41.71
21730;BME280;11027;51.030;13.812;2023-03-18T08:31:51;99978.81;;;10.05;41.77
21730;BME280;11027;51.030;13.812;2023-03-18T08:34:18;99991.03;;;10.09;41.94
21730;BME280;11027;51.030;13.812;2023-03-18T08:36:43;99993.56;;;10.11;41.92
21730;BME280;11027;51.030;13.812;2023-03-18T08:39:09;99984.56;;;10.10;42.00
21730;BME280;11027;51.030;13.812;2023-03-18T08:41:34;99992.06;;;10.08;42.10
21730;BME280;11027;51.030;13.812;2023-03-18T08:44:00;99995.63;;;10.09;42.09
21730;BME280;11027;51.030;13.812;2023-03-18T08:46:25;99981.84;;;10.10;42.22
21730;BME280;11027;51.030;13.812;2023-03-18T08:48:51;99984.19;;;10.13;42.17
21730;BME280;11027;51.030;13.812;2023-03-18T08:51:18;99987.41;;;10.17;42.28
21730;BME280;11027;51.030;13.812;2023-03-18T08:53:43;99992.50;;;10.20;42.50
21730;BME280;11027;51.030;13.812;2023-03-18T08:56:08;99994.81;;;10.23;42.57
21730;BME280;11027;51.030;13.812;2023-03-18T08:58:34;99991.56;;;10.28;42.40
21730;BME280;11027;51.030;13.812;2023-03-18T09:01:00;99999.03;;;10.34;42.11
21730;BME280;11027;51.030;13.812;2023-03-18T09:03:27;100001.22;;;10.38;42.26
21730;BME280;11027;51.030;13.812;2023-03-18T09:05:52;99998.94;;;10.42;42.19
21730;BME280;11027;51.030;13.812;2023-03-18T09:08:19;100007.25;;;10.49;42.04
21730;BME280;11027;51.030;13.812;2023-03-18T09:10:45;99999.84;;;10.57;42.25
21730;BME280;11027;51.030;13.812;2023-03-18T09:13:11;99994.13;;;10.67;42.32
21730;BME280;11027;51.030;13.812;2023-03-18T09:15:36;99995.53;;;10.78;42.20
21730;BME280;11027;51.030;13.812;2023-03-18T09:18:01;99993.38;;;10.88;42.02
21730;BME280;11027;51.030;13.812;2023-03-18T09:20:28;99984.75;;;10.99;42.05
21730;BME280;11027;51.030;13.812;2023-03-18T09:22:53;99988.03;;;11.10;42.00
21730;BME280;11027;51.030;13.812;2023-03-18T09:25:18;99988.41;;;11.21;42.03
21730;BME280;11027;51.030;13.812;2023-03-18T09:27:44;99988.13;;;11.31;41.97
21730;BME280;11027;51.030;13.812;2023-03-18T09:30:09;99989.53;;;11.42;42.02
21730;BME280;11027;51.030;13.812;2023-03-18T09:32:35;99986.88;;;11.49;41.73
21730;BME280;11027;51.030;13.812;2023-03-18T09:35:00;99996.56;;;11.51;41.23
21730;BME280;11027;51.030;13.812;2023-03-18T09:37:25;99994.94;;;11.57;41.01
21730;BME280;11027;51.030;13.812;2023-03-18T09:39:50;99996.53;;;11.66;41.14
21730;BME280;11027;51.030;13.812;2023-03-18T09:45:01;99997.41;;;11.88;41.08
21730;BME280;11027;51.030;13.812;2023-03-18T09:47:34;99993.34;;;11.99;41.22
21730;BME280;11027;51.030;13.812;2023-03-18T09:50:25;99996.88;;;12.14;41.13
21730;BME280;11027;51.030;13.812;2023-03-18T09:57:44;99994.75;;;12.59;41.10
21730;BME280;11027;51.030;13.812;2023-03-18T10:02:39;99978.31;;;12.81;40.66
21730;BME280;11027;51.030;13.812;2023-03-18T10:05:09;99974.34;;;12.90;40.46
21730;BME280;11027;51.030;13.812;2023-03-18T10:07:37;99980.09;;;13.02;40.43
21730;BME280;11027;51.030;13.812;2023-03-18T10:10:05;99965.25;;;13.18;40.34
21730;BME280;11027;51.030;13.812;2023-03-18T10:12:35;99970.41;;;13.34;40.39
21730;BME280;11027;51.030;13.812;2023-03-18T10:15:20;99972.81;;;13.51;39.92
21730;BME280;11027;51.030;13.812;2023-03-18T10:17:55;99966.13;;;13.60;39.78
21730;BME280;11027;51.030;13.812;2023-03-18T10:25:40;99968.72;;;13.88;39.17
21730;BME280;11027;51.030;13.812;2023-03-18T10:33:25;99976.13;;;14.01;38.58
21730;BME280;11027;51.030;13.812;2023-03-18T10:38:51;99981.19;;;14.17;38.66
21730;BME280;11027;51.030;13.812;2023-03-18T10:41:21;99981.84;;;14.26;38.36
21730;BME280;11027;51.030;13.812;2023-03-18T10:43:48;99978.03;;;14.34;38.35
21730;BME280;11027;51.030;13.812;2023-03-18T10:46:15;99987.56;;;14.45;38.16
21730;BME280;11027;51.030;13.812;2023-03-18T10:48:46;99975.53;;;14.52;38.23
21730;BME280;11027;51.030;13.812;2023-03-18T10:51:18;99980.22;;;14.58;38.17
21730;BME280;11027;51.030;13.812;2023-03-18T10:53:48;99985.47;;;14.67;38.39
21730;BME280;11027;51.030;13.812;2023-03-18T10:56:17;99980.81;;;14.74;38.19
21730;BME280;11027;51.030;13.812;2023-03-18T10:58:43;99978.28;;;14.79;38.05
21730;BME280;11027;51.030;13.812;2023-03-18T11:01:09;99978.91;;;14.81;38.03
21730;BME280;11027;51.030;13.812;2023-03-18T11:03:43;99979.97;;;14.80;37.91
21730;BME280;11027;51.030;13.812;2023-03-18T11:06:16;99976.81;;;14.83;37.96
21730;BME280;11027;51.030;13.812;2023-03-18T11:08:45;99981.66;;;14.81;37.78
21730;BME280;11027;51.030;13.812;2023-03-18T11:13:44;99981.63;;;14.94;37.93
21730;BME280;11027;51.030;13.812;2023-03-18T11:16:11;99979.09;;;14.99;38.19
21730;BME280;11027;51.030;13.812;2023-03-18T11:18:44;99983.31;;;15.02;37.86
21730;BME280;11027;51.030;13.812;2023-03-18T11:21:11;99985.00;;;15.03;38.02
21730;BME280;11027;51.030;13.812;2023-03-18T11:23:37;99985.84;;;15.04;37.99
21730;BME280;11027;51.030;13.812;2023-03-18T11:26:31;99979.94;;;15.00;37.34
21730;BME280;11027;51.030;13.812;2023-03-18T11:29:10;99979.94;;;14.93;37.55
21730;BME280;11027;51.030;13.812;2023-03-18T11:31:46;99984.16;;;14.96;37.80
21730;BME280;11027;51.030;13.812;2023-03-18T11:34:15;99983.75;;;14.92;37.64
21730;BME280;11027;51.030;13.812;2023-03-18T11:36:40;99983.75;;;14.92;37.29
21730;BME280;11027;51.030;13.812;2023-03-18T11:39:05;99980.59;;;14.89;37.10
21730;BME280;11027;51.030;13.812;2023-03-18T11:41:31;99978.06;;;14.87;37.24
21730;BME280;11027;51.030;13.812;2023-03-18T11:44:15;99982.06;;;14.91;37.52
21730;BME280;11027;51.030;13.812;2023-03-18T11:46:46;99983.09;;;15.04;37.41
21730;BME280;11027;51.030;13.812;2023-03-18T11:49:15;99982.88;;;15.12;37.25
21730;BME280;11027;51.030;13.812;2023-03-18T11:51:43;99986.22;;;15.20;37.37
21730;BME280;11027;51.030;13.812;2023-03-18T11:54:22;99978.59;;;15.29;37.06
21730;BME280;11027;51.030;13.812;2023-03-18T11:56:56;99979.00;;;15.39;36.99
21730;BME280;11027;51.030;13.812;2023-03-18T12:02:07;99983.38;;;15.54;36.61
21730;BME280;11027;51.030;13.812;2023-03-18T12:04:53;99978.09;;;15.52;36.38
21730;BME280;11027;51.030;13.812;2023-03-18T12:07:24;99974.03;;;15.55;36.69
21730;BME280;11027;51.030;13.812;2023-03-18T12:09:58;99984.41;;;15.59;36.13
21730;BME280;11027;51.030;13.812;2023-03-18T12:15:12;99982.22;;;15.82;36.31
21730;BME280;11027;51.030;13.812;2023-03-18T12:17:48;99987.00;;;15.93;36.57
21730;BME280;11027;51.030;13.812;2023-03-18T12:20:21;99985.44;;;16.04;36.47
21730;BME280;11027;51.030;13.812;2023-03-18T12:25:46;99974.94;;;16.26;35.93
21730;BME280;11027;51.030;13.812;2023-03-18T12:35:40;99972.00;;;16.52;36.41
21730;BME280;11027;51.030;13.812;2023-03-18T12:40:35;99969.72;;;16.68;36.02
21730;BME280;11027;51.030;13.812;2023-03-18T12:45:41;99970.19;;;16.65;35.81
21730;BME280;11027;51.030;13.812;2023-03-18T12:48:31;99969.34;;;16.64;35.52
21730;BME280;11027;51.030;13.812;2023-03-18T12:51:33;99968.84;;;16.74;35.93
21730;BME280;11027;51.030;13.812;2023-03-18T12:53:50;99966.00;;;16.87;35.38
21730;BME280;11027;51.030;13.812;2023-03-18T12:56:23;99970.28;;;17.02;35.20
21730;BME280;11027;51.030;13.812;2023-03-18T12:58:51;99957.16;;;17.22;35.11
21730;BME280;11027;51.030;13.812;2023-03-18T13:01:24;99959.28;;;17.38;35.51
21730;BME280;11027;51.030;13.812;2023-03-18T13:03:56;99960.78;;;17.53;35.20
21730;BME280;11027;51.030;13.812;2023-03-18T13:06:24;99960.34;;;17.56;34.96
21730;BME280;11027;51.030;13.812;2023-03-18T13:16:47;99952.00;;;17.44;34.68
21730;BME280;11027;51.030;13.812;2023-03-18T13:19:13;99956.16;;;17.53;35.04
21730;BME280;11027;51.030;13.812;2023-03-18T13:21:40;99950.81;;;17.70;34.80
21730;BME280;11027;51.030;13.812;2023-03-18T13:24:30;99949.09;;;18.06;34.64
21730;BME280;11027;51.030;13.812;2023-03-18T13:29:45;99947.09;;;19.84;32.27
21730;BME280;11027;51.030;13.812;2023-03-18T13:34:58;99934.94;;;21.20;30.82
21730;BME280;11027;51.030;13.812;2023-03-18T13:37:49;99940.97;;;21.56;30.00
21730;BME280;11027;51.030;13.812;2023-03-18T13:40:35;99936.81;;;21.58;29.76
21730;BME280;11027;51.030;13.812;2023-03-18T13:43:04;99925.66;;;22.03;29.45
21730;BME280;11027;51.030;13.812;2023-03-18T13:45:37;99922.97;;;22.77;28.92
21730;BME280;11027;51.030;13.812;2023-03-18T13:48:06;99910.94;;;23.72;28.08
21730;BME280;11027;51.030;13.812;2023-03-18T13:50:33;99915.81;;;24.64;26.94
21730;BME280;11027;51.030;13.812;2023-03-18T13:52:59;99911.53;;;25.23;26.33
21730;BME280;11027;51.030;13.812;2023-03-18T14:07:57;99893.06;;;31.04;21.50
21730;BME280;11027;51.030;13.812;2023-03-18T14:10:22;99891.19;;;31.30;20.41
21730;BME280;11027;51.030;13.812;2023-03-18T14:12:48;99889.19;;;31.80;20.33